Huvudsida
METAR-TAF:

METAR-TAF

Flygplatser :

Hammerfests flygplats

Hammerfests, Norge

latitud: 70-40N, longitud: 023-40E, höjd: 8 m

Aktuellt väderrapport

Denna rapport gjordes för 45 minuter sedan, klockan 11:50 UTC
Vind 5 kt från syd/sydväst, varierande mellan syd och väst/sydväst
Temperatur 3°C
Fuktighet 60%
Tryck 995 hPa
Sikt 10 km eller mer
Få moln på en höjd av 4700 ft

METAR: ENHF 211150Z 20005KT 170V240 9999 FEW047 03/M04 Q0995 RMK WIND 1254FT 20010KT

Tid: 13:35 (12:35 UTC)

Väderprognos

Denna rapport gjordes för 1 timme och 35 minuter sedan, klockan 11:00 UTC
Prognos gäller från 21 kl. 12 UTC till 21 kl. 21 UTC
Vind 9 kt från syd/sydväst
Sikt 10 km eller mer
Inga moln under 1 500 m eller inga cumulonimbus
Blir
från 21 kl. 19 UTC till 21 kl. 21 UTC
Vind 22 kt från väst

TAF: ENHF 211100Z 2112/2121 21009KT CAVOK BECMG 2119/2121 27022KT

Aktuella väderrapporter och prognoser från 4000 flygplatser (METAR- och TAF-rapporter).

De tillgängliga stationerna syns som gula och röda prickar på kartan.

För musen över prickarna för att se namnen på stationerna.

Klicka sedan för att få väderrapporter och prognoser.

För att ändra kartan: Klicka på de gröna knapparna med ett svart kors på för att zooma in; den gröna knappen med ett streck på för att zooma ut; eller på de gröna pilarna för angränsande kartor.


METAR-TAF: